Map

Track Data

SID SEASON NUMBER BASIN SUBBASIN NAME ISO_TIME NATURE LAT LON WMO_WIND WMO_PRES WMO_AGENCY TRACK_TYPE DIST2LAND LANDFALL IFLAG USA_AGENCY USA_ATCF_ID USA_LAT USA_LON USA_RECORD USA_STATUS USA_WIND USA_PRES USA_SSHS USA_R34_NE USA_R34_SE USA_R34_SW USA_R34_NW USA_R50_NE USA_R50_SE USA_R50_SW USA_R50_NW USA_R64_NE USA_R64_SE USA_R64_SW USA_R64_NW USA_POCI USA_ROCI USA_RMW USA_EYE TOKYO_LAT TOKYO_LON TOKYO_GRADE TOKYO_WIND TOKYO_PRES TOKYO_R50_DIR TOKYO_R50_LONG TOKYO_R50_SHORT TOKYO_R30_DIR TOKYO_R30_LONG TOKYO_R30_SHORT TOKYO_LAND CMA_LAT CMA_LON CMA_CAT CMA_WIND CMA_PRES HKO_LAT HKO_LON HKO_CAT HKO_WIND HKO_PRES NEWDELHI_LAT NEWDELHI_LON NEWDELHI_GRADE NEWDELHI_WIND NEWDELHI_PRES NEWDELHI_CI NEWDELHI_DP NEWDELHI_POCI REUNION_LAT REUNION_LON REUNION_TYPE REUNION_WIND REUNION_PRES REUNION_TNUM REUNION_CI REUNION_RMW REUNION_R34_NE REUNION_R34_SE REUNION_R34_SW REUNION_R34_NW REUNION_R50_NE REUNION_R50_SE REUNION_R50_SW REUNION_R50_NW REUNION_R64_NE REUNION_R64_SE REUNION_R64_SW REUNION_R64_NW BOM_LAT BOM_LON BOM_TYPE BOM_WIND BOM_PRES BOM_TNUM BOM_CI BOM_RMW BOM_R34_NE BOM_R34_SE BOM_R34_SW BOM_R34_NW BOM_R50_NE BOM_R50_SE BOM_R50_SW BOM_R50_NW BOM_R64_NE BOM_R64_SE BOM_R64_SW BOM_R64_NW BOM_ROCI BOM_POCI BOM_EYE BOM_POS_METHOD BOM_PRES_METHOD NADI_LAT NADI_LON NADI_CAT NADI_WIND NADI_PRES WELLINGTON_LAT WELLINGTON_LON WELLINGTON_WIND WELLINGTON_PRES DS824_LAT DS824_LON DS824_STAGE DS824_WIND DS824_PRES TD9636_LAT TD9636_LON TD9636_STAGE TD9636_WIND TD9636_PRES TD9635_LAT TD9635_LON TD9635_WIND TD9635_PRES TD9635_ROCI NEUMANN_LAT NEUMANN_LON NEUMANN_CLASS NEUMANN_WIND NEUMANN_PRES MLC_LAT MLC_LON MLC_CLASS MLC_WIND MLC_PRES USA_GUST BOM_GUST BOM_GUST_PER REUNION_GUST REUNION_GUST_PER USA_SEAHGT USA_SEARAD_NE USA_SEARAD_SE USA_SEARAD_SW USA_SEARAD_NW STORM_SPEED STORM_DIR
1952252N42337 1952 65 NA NA NOT_NAMED 1952-09-08 00:00:00 TS 42.0000 -23.0000 35 hurdat_atl main 1123 1123 O_____________ hurdat_atl AL051952 42.0000 -23.0000 TS 35 0 15 262
1952252N42337 1952 65 NA NA NOT_NAMED 1952-09-08 03:00:00 TS 41.8933 -23.9785 main 1206 1206 P_____________ AL051952 41.8933 -23.9785 TS 35 0 15 262
1952252N42337 1952 65 NA NA NOT_NAMED 1952-09-08 06:00:00 TS 41.8000 -25.0000 35 hurdat_atl main 1289 1289 O_____________ hurdat_atl AL051952 41.8000 -25.0000 TS 35 0 16 264
1952252N42337 1952 65 NA NA NOT_NAMED 1952-09-08 09:00:00 TS 41.7231 -26.0667 main 1381 1381 P_____________ AL051952 41.7231 -26.0667 TS 37 0 15 262
1952252N42337 1952 65 NA NA NOT_NAMED 1952-09-08 12:00:00 TS 41.6000 -27.0000 40 hurdat_atl main 1456 1456 O_____________ hurdat_atl AL051952 41.6000 -27.0000 TS 40 0 12 254
1952252N42337 1952 65 NA NA NOT_NAMED 1952-09-08 15:00:00 TS 41.3715 -27.6703 main 1517 1517 P_____________ AL051952 41.3715 -27.6703 TS 40 0 10 239
1952252N42337 1952 65 NA NA NOT_NAMED 1952-09-08 18:00:00 TS 41.1000 -28.1000 40 hurdat_atl main 1557 1557 O_____________ hurdat_atl AL051952 41.1000 -28.1000 TS 40 0 8 228
1952252N42337 1952 65 NA NA NOT_NAMED 1952-09-08 21:00:00 TS 40.8344 -28.4501 main 1598 1598 P_____________ AL051952 40.8344 -28.4501 TS 42 0 6 211
1952252N42337 1952 65 NA NA NOT_NAMED 1952-09-09 00:00:00 TS 40.6000 -28.5000 45 hurdat_atl main 1604 1582 O_____________ hurdat_atl AL051952 40.6000 -28.5000 TS 45 0 5 151
1952252N42337 1952 65 NA NA NOT_NAMED 1952-09-09 03:00:00 TS 40.4352 -28.1621 main 1586 1540 P_____________ AL051952 40.4352 -28.1621 TS 45 0 7 114
1952252N42337 1952 65 NA NA NOT_NAMED 1952-09-09 06:00:00 TS 40.3000 -27.6000 45 hurdat_atl main 1540 1503 O_____________ hurdat_atl AL051952 40.3000 -27.6000 TS 45 0 9 109
1952252N42337 1952 65 NA NA NOT_NAMED 1952-09-09 09:00:00 TS 40.1430 -27.0197 main 1498 1460 P_____________ AL051952 40.1430 -27.0197 TS 45 0 9 110
1952252N42337 1952 65 NA NA NOT_NAMED 1952-09-09 12:00:00 TS 40.0000 -26.5000 45 hurdat_atl main 1460 1434 O_____________ hurdat_atl AL051952 40.0000 -26.5000 TS 45 0 7 111
1952252N42337 1952 65 NA NA NOT_NAMED 1952-09-09 15:00:00 TS 39.8996 -26.1829 main 1434 1417 P_____________ AL051952 39.8996 -26.1829 TS 42 0 4 117
1952252N42337 1952 65 NA NA NOT_NAMED 1952-09-09 18:00:00 TS 39.8000 -26.0000 40 hurdat_atl main 1417 1409 O_____________ hurdat_atl AL051952 39.8000 -26.0000 TS 40 0 3 138
1952252N42337 1952 65 NA NA NOT_NAMED 1952-09-09 21:00:00 TS 39.6499 -25.8927 main 1409 1401 P_____________ AL051952 39.6499 -25.8927 TS 40 0 3 153
1952252N42337 1952 65 NA NA NOT_NAMED 1952-09-10 00:00:00 TS 39.5000 -25.8000 40 hurdat_atl main 1401 1385 O_____________ hurdat_atl AL051952 39.5000 -25.8000 TS 40 0 3 139
1952252N42337 1952 65 NA NA NOT_NAMED 1952-09-10 03:00:00 TS 39.4000 -25.6151 main 1385 1368 P_____________ AL051952 39.4000 -25.6151 TS 37 0 4 123
1952252N42337 1952 65 NA NA NOT_NAMED 1952-09-10 06:00:00 TS 39.3000 -25.4000 35 hurdat_atl main 1368 1351 O_____________ hurdat_atl AL051952 39.3000 -25.4000 TS 35 0 4 127
1952252N42337 1952 65 NA NA NOT_NAMED 1952-09-10 09:00:00 TS 39.1649 -25.2152 main 1351 1336 P_____________ AL051952 39.1649 -25.2152 TS 35 0 4 134
1952252N42337 1952 65 NA NA NOT_NAMED 1952-09-10 12:00:00 TS 39.0000 -25.0000 35 hurdat_atl main 1336 1311 O_____________ hurdat_atl AL051952 39.0000 -25.0000 TS 35 0 5 135
1952252N42337 1952 65 NA NA NOT_NAMED 1952-09-10 15:00:00 TS 38.7850 -24.7222 main 1311 1288 P_____________ AL051952 38.7850 -24.7222 TS 32 -1 6 131
1952252N42337 1952 65 NA NA NOT_NAMED 1952-09-10 18:00:00 TS 38.6000 -24.4000 30 hurdat_atl main 1288 1263 O_____________ hurdat_atl AL051952 38.6000 -24.4000 TD 30 -1 6 118
1952252N42337 1952 65 NA NA NOT_NAMED 1952-09-10 21:00:00 TS 38.5050 -24.0575 main 1263 1228 P_____________ AL051952 38.5050 -24.0575 TD 30 -1 6 100
1952252N42337 1952 65 NA NA NOT_NAMED 1952-09-11 00:00:00 TS 38.5000 -23.7000 30 hurdat_atl main 1228 1201 O_____________ hurdat_atl AL051952 38.5000 -23.7000 TD 30 -1 6 81
1952252N42337 1952 65 NA NA NOT_NAMED 1952-09-11 03:00:00 TS 38.5924 -23.3504 main 1201 1166 P_____________ AL051952 38.5924 -23.3504 TD 30 -1 6 70
1952252N42337 1952 65 NA NA NOT_NAMED 1952-09-11 06:00:00 TS 38.7000 -23.0000 30 hurdat_atl main 1166 1149 O_____________ hurdat_atl AL051952 38.7000 -23.0000 TD 30 -1 5 72
1952252N42337 1952 65 NA NA NOT_NAMED 1952-09-11 09:00:00 TS 38.7434 -22.7483 main 1140 1105 P_____________ AL051952 38.7434 -22.7483 TD 30 -1 5 90
1952252N42337 1952 65 NA NA NOT_NAMED 1952-09-11 12:00:00 ET 38.7000 -22.3000 30 hurdat_atl main 1105 1046 O_____________ hurdat_atl AL051952 38.7000 -22.3000 EX 30 -4 10 101
1952252N42337 1952 65 NA NA NOT_NAMED 1952-09-11 15:00:00 ET 38.5572 -21.5116 main 1037 946 P_____________ AL051952 38.5572 -21.5116 EX 32 -4 16 104
1952252N42337 1952 65 NA NA NOT_NAMED 1952-09-11 18:00:00 ET 38.3000 -20.3000 35 hurdat_atl main 937 805 O_____________ hurdat_atl AL051952 38.3000 -20.3000 EX 35 -4 24 106
1952252N42337 1952 65 NA NA NOT_NAMED 1952-09-11 21:00:00 ET 37.8886 -18.6123 main 797 661 P_____________ AL051952 37.8886 -18.6123 EX 35 -4 29 106
1952252N42337 1952 65 NA NA NOT_NAMED 1952-09-12 00:00:00 ET 37.5000 -16.8000 35 hurdat_atl main 652 541 O_____________ hurdat_atl AL051952 37.5000 -16.8000 EX 35 -4 27 102
1952252N42337 1952 65 NA NA NOT_NAMED 1952-09-12 03:00:00 ET 37.3446 -15.2933 main 533 426 P_____________ AL051952 37.3446 -15.2933 EX 35 -4 23 95
1952252N42337 1952 65 NA NA NOT_NAMED 1952-09-12 06:00:00 ET 37.3000 -13.9000 35 hurdat_atl main 418 318 O_____________ hurdat_atl AL051952 37.3000 -13.9000 EX 35 -4 22 92
1952252N42337 1952 65 NA NA NOT_NAMED 1952-09-12 09:00:00 ET 37.2491 -12.4985 main 310 204 P_____________ AL051952 37.2491 -12.4985 EX 35 -4 21 93
1952252N42337 1952 65 NA NA NOT_NAMED 1952-09-12 12:00:00 ET 37.2000 -11.2000 35 hurdat_atl main 195 89 O_____________ hurdat_atl AL051952 37.2000 -11.2000 EX 35 -4 20 95
1952252N42337 1952 65 NA NA NOT_NAMED 1952-09-12 15:00:00 ET 37.0771 -9.98656 main 89 0 P_____________ AL051952 37.0771 -9.98656 EX 35 -4 18 97
1952252N42337 1952 65 NA NA NOT_NAMED 1952-09-12 18:00:00 ET 37.0000 -9.00000 35 hurdat_atl main 0 0 O_____________ hurdat_atl AL051952 37.0000 -9.00000 EX 35 -4 13 96
1952252N42337 1952 65 NA NA NOT_NAMED 1952-09-12 21:00:00 ET 36.9472 -8.38127 main 28 0 P_____________ AL051952 36.9472 -8.38127 EX 35 -4 10 78
1952252N42337 1952 65 NA NA NOT_NAMED 1952-09-13 00:00:00 ET 37.2000 -7.80000 35 hurdat_atl main 0 0 O_____________ hurdat_atl AL051952 37.2000 -7.80000 EX 35 -4 16 50
1952252N42337 1952 65 NA NA NOT_NAMED 1952-09-13 03:00:00 ET 37.9656 -6.86231 main 0 0 P_____________ AL051952 37.9656 -6.86231 EX 35 -4 24 41
1952252N42337 1952 65 NA NA NOT_NAMED 1952-09-13 06:00:00 ET 39.0000 -5.80000 35 hurdat_atl main 0 0 O_____________ hurdat_atl AL051952 39.0000 -5.80000 EX 35 -4 27 37
1952252N42337 1952 65 NA NA NOT_NAMED 1952-09-13 09:00:00 ET 40.0819 -4.78757 main 0 0 P_____________ AL051952 40.0819 -4.78757 EX 35 -4 25 37
1952252N42337 1952 65 NA NA NOT_NAMED 1952-09-13 12:00:00 ET 41.0000 -3.80000 35 hurdat_atl main 0 0 O_____________ hurdat_atl AL051952 41.0000 -3.80000 EX 35 -4 20 46
1952252N42337 1952 65 NA NA NOT_NAMED 1952-09-13 15:00:00 ET 41.4538 -2.87993 main 0 0 P_____________ AL051952 41.4538 -2.87993 EX 35 -4 15 63
1952252N42337 1952 65 NA NA NOT_NAMED 1952-09-13 18:00:00 ET 41.7000 -2.00000 35 hurdat_atl main 0 0 O_____________ hurdat_atl AL051952 41.7000 -2.00000 EX 35 -4 15 69
1952252N42337 1952 65 NA NA NOT_NAMED 1952-09-13 21:00:00 ET 41.9853 -1.04643 main 0 0 P_____________ AL051952 41.9853 -1.04643 EX 35 -4 15 66
1952252N42337 1952 65 NA NA NOT_NAMED 1952-09-14 00:00:00 ET 42.3000 -0.200000 35 hurdat_atl main 0 0 O_____________ hurdat_atl AL051952 42.3000 -0.200000 EX 35 -4 13 56
1952252N42337 1952 65 NA NA NOT_NAMED 1952-09-14 03:00:00 ET 42.7342 0.432711 main 0 0 P_____________ AL051952 42.7342 0.432711 EX 35 -4 12 42
1952252N42337 1952 65 NA NA NOT_NAMED 1952-09-14 06:00:00 ET 43.2000 0.900000 35 hurdat_atl main 0 0 O_____________ hurdat_atl AL051952 43.2000 0.900000 EX 35 -4 11 35
1952252N42337 1952 65 NA NA NOT_NAMED 1952-09-14 09:00:00 ET 43.6179 1.27204 main 0 0 P_____________ AL051952 43.6179 1.27204 EX 35 -4 9 32
1952252N42337 1952 65 NA NA NOT_NAMED 1952-09-14 12:00:00 ET 44.0000 1.60000 35 hurdat_atl main 0 O_____________ hurdat_atl AL051952 44.0000 1.60000 EX 35 -4 9 32

About IBTrACS Database

This database is a web-friendly format of International Best Track Archive for Climate Stewardship (IBTrACS), a global best track data archive curated by NOAA dating back to 1842.

Updated: 2021-11-26